sensor_id;sensor_type;location;lat;lon;timestamp;P1;durP1;ratioP1;P2;durP2;ratioP2
80510;SDS011;69840;53.040;8.600;2023-07-22T00:03:33;9.75;;;4.68;;
80510;SDS011;69840;53.040;8.600;2023-07-22T00:07:46;5.35;;;3.08;;
80510;SDS011;69840;53.040;8.600;2023-07-22T00:11:58;10.88;;;4.10;;
80510;SDS011;69840;53.040;8.600;2023-07-22T00:16:11;9.73;;;4.03;;
80510;SDS011;69840;53.040;8.600;2023-07-22T00:20:23;7.50;;;3.53;;
80510;SDS011;69840;53.040;8.600;2023-07-22T00:24:36;9.68;;;3.80;;
80510;SDS011;69840;53.040;8.600;2023-07-22T00:28:48;9.85;;;3.40;;
80510;SDS011;69840;53.040;8.600;2023-07-22T00:33:01;7.50;;;3.80;;
80510;SDS011;69840;53.040;8.600;2023-07-22T00:37:13;9.60;;;3.92;;
80510;SDS011;69840;53.040;8.600;2023-07-22T00:41:26;11.35;;;4.20;;
80510;SDS011;69840;53.040;8.600;2023-07-22T00:45:38;9.13;;;3.63;;
80510;SDS011;69840;53.040;8.600;2023-07-22T00:49:51;8.25;;;2.85;;
80510;SDS011;69840;53.040;8.600;2023-07-22T00:54:04;8.82;;;2.55;;
80510;SDS011;69840;53.040;8.600;2023-07-22T00:58:17;7.13;;;3.58;;
80510;SDS011;69840;53.040;8.600;2023-07-22T01:02:29;6.32;;;2.65;;
80510;SDS011;69840;53.040;8.600;2023-07-22T01:06:42;11.35;;;3.35;;
80510;SDS011;69840;53.040;8.600;2023-07-22T01:10:56;8.55;;;3.78;;
80510;SDS011;69840;53.040;8.600;2023-07-22T01:15:09;7.32;;;2.63;;
80510;SDS011;69840;53.040;8.600;2023-07-22T01:19:22;8.95;;;3.85;;
80510;SDS011;69840;53.040;8.600;2023-07-22T01:23:35;6.25;;;2.35;;
80510;SDS011;69840;53.040;8.600;2023-07-22T01:27:51;8.25;;;2.88;;
80510;SDS011;69840;53.040;8.600;2023-07-22T01:32:04;7.05;;;2.63;;
80510;SDS011;69840;53.040;8.600;2023-07-22T01:36:17;5.20;;;3.08;;
80510;SDS011;69840;53.040;8.600;2023-07-22T01:40:29;5.65;;;3.78;;
80510;SDS011;69840;53.040;8.600;2023-07-22T01:44:42;11.02;;;3.45;;
80510;SDS011;69840;53.040;8.600;2023-07-22T01:48:55;7.50;;;3.38;;
80510;SDS011;69840;53.040;8.600;2023-07-22T01:53:08;6.10;;;2.85;;
80510;SDS011;69840;53.040;8.600;2023-07-22T01:57:20;8.65;;;3.20;;
80510;SDS011;69840;53.040;8.600;2023-07-22T02:01:33;6.40;;;2.80;;
80510;SDS011;69840;53.040;8.600;2023-07-22T02:05:45;9.93;;;3.03;;
80510;SDS011;69840;53.040;8.600;2023-07-22T02:09:58;7.95;;;3.60;;
80510;SDS011;69840;53.040;8.600;2023-07-22T02:14:11;9.25;;;2.90;;
80510;SDS011;69840;53.040;8.600;2023-07-22T02:18:24;8.27;;;3.20;;
80510;SDS011;69840;53.040;8.600;2023-07-22T02:22:36;16.23;;;4.45;;
80510;SDS011;69840;53.040;8.600;2023-07-22T02:26:49;9.05;;;3.05;;
80510;SDS011;69840;53.040;8.600;2023-07-22T02:31:02;8.52;;;3.40;;
80510;SDS011;69840;53.040;8.600;2023-07-22T02:35:15;7.03;;;3.38;;
80510;SDS011;69840;53.040;8.600;2023-07-22T02:39:27;11.80;;;2.70;;
80510;SDS011;69840;53.040;8.600;2023-07-22T02:43:40;7.25;;;3.10;;
80510;SDS011;69840;53.040;8.600;2023-07-22T02:47:52;7.57;;;2.58;;
80510;SDS011;69840;53.040;8.600;2023-07-22T02:52:05;7.97;;;3.08;;
80510;SDS011;69840;53.040;8.600;2023-07-22T02:56:18;8.95;;;2.67;;
80510;SDS011;69840;53.040;8.600;2023-07-22T03:00:31;6.55;;;3.60;;
80510;SDS011;69840;53.040;8.600;2023-07-22T03:04:43;13.70;;;3.28;;
80510;SDS011;69840;53.040;8.600;2023-07-22T03:08:56;12.55;;;4.38;;
80510;SDS011;69840;53.040;8.600;2023-07-22T03:13:09;7.18;;;2.95;;
80510;SDS011;69840;53.040;8.600;2023-07-22T03:17:22;7.63;;;3.25;;
80510;SDS011;69840;53.040;8.600;2023-07-22T03:21:34;11.18;;;3.78;;
80510;SDS011;69840;53.040;8.600;2023-07-22T03:25:47;9.30;;;3.40;;
80510;SDS011;69840;53.040;8.600;2023-07-22T03:30:00;9.00;;;3.83;;
80510;SDS011;69840;53.040;8.600;2023-07-22T03:34:14;5.82;;;2.90;;
80510;SDS011;69840;53.040;8.600;2023-07-22T03:38:26;8.10;;;4.30;;
80510;SDS011;69840;53.040;8.600;2023-07-22T03:42:39;14.30;;;2.95;;
80510;SDS011;69840;53.040;8.600;2023-07-22T03:46:51;6.82;;;2.90;;
80510;SDS011;69840;53.040;8.600;2023-07-22T03:51:04;7.22;;;2.92;;
80510;SDS011;69840;53.040;8.600;2023-07-22T03:55:23;11.40;;;3.45;;
80510;SDS011;69840;53.040;8.600;2023-07-22T03:59:36;13.18;;;3.58;;
80510;SDS011;69840;53.040;8.600;2023-07-22T04:03:48;10.57;;;3.63;;
80510;SDS011;69840;53.040;8.600;2023-07-22T04:08:01;7.80;;;3.28;;
80510;SDS011;69840;53.040;8.600;2023-07-22T04:12:13;11.45;;;2.97;;
80510;SDS011;69840;53.040;8.600;2023-07-22T04:16:30;8.27;;;3.67;;
80510;SDS011;69840;53.040;8.600;2023-07-22T04:20:42;10.88;;;2.95;;
80510;SDS011;69840;53.040;8.600;2023-07-22T04:24:55;9.88;;;3.40;;
80510;SDS011;69840;53.040;8.600;2023-07-22T04:29:08;9.95;;;3.33;;
80510;SDS011;69840;53.040;8.600;2023-07-22T04:33:22;8.65;;;4.28;;
80510;SDS011;69840;53.040;8.600;2023-07-22T04:37:34;12.10;;;3.67;;
80510;SDS011;69840;53.040;8.600;2023-07-22T04:41:47;8.80;;;4.72;;
80510;SDS011;69840;53.040;8.600;2023-07-22T04:45:59;6.90;;;2.72;;
80510;SDS011;69840;53.040;8.600;2023-07-22T04:50:12;11.60;;;4.05;;
80510;SDS011;69840;53.040;8.600;2023-07-22T04:54:25;6.05;;;2.72;;
80510;SDS011;69840;53.040;8.600;2023-07-22T04:58:38;8.10;;;2.75;;
80510;SDS011;69840;53.040;8.600;2023-07-22T05:02:50;9.02;;;3.45;;
80510;SDS011;69840;53.040;8.600;2023-07-22T05:07:03;10.27;;;3.90;;
80510;SDS011;69840;53.040;8.600;2023-07-22T05:11:16;8.88;;;4.07;;
80510;SDS011;69840;53.040;8.600;2023-07-22T05:15:28;14.52;;;4.10;;
80510;SDS011;69840;53.040;8.600;2023-07-22T05:19:41;8.50;;;3.08;;
80510;SDS011;69840;53.040;8.600;2023-07-22T05:23:53;7.05;;;2.90;;
80510;SDS011;69840;53.040;8.600;2023-07-22T05:28:06;5.47;;;2.67;;
80510;SDS011;69840;53.040;8.600;2023-07-22T05:32:19;9.48;;;3.10;;
80510;SDS011;69840;53.040;8.600;2023-07-22T05:36:42;5.75;;;2.47;;
80510;SDS011;69840;53.040;8.600;2023-07-22T05:40:55;6.97;;;3.13;;
80510;SDS011;69840;53.040;8.600;2023-07-22T05:45:08;7.45;;;3.47;;
80510;SDS011;69840;53.040;8.600;2023-07-22T05:49:21;8.68;;;3.20;;
80510;SDS011;69840;53.040;8.600;2023-07-22T05:53:34;7.22;;;2.85;;
80510;SDS011;69840;53.040;8.600;2023-07-22T05:57:47;8.90;;;3.03;;
80510;SDS011;69840;53.040;8.600;2023-07-22T06:01:59;8.55;;;3.65;;
80510;SDS011;69840;53.040;8.600;2023-07-22T06:06:12;7.93;;;3.55;;
80510;SDS011;69840;53.040;8.600;2023-07-22T06:10:24;8.50;;;2.65;;
80510;SDS011;69840;53.040;8.600;2023-07-22T06:14:37;8.02;;;3.20;;
80510;SDS011;69840;53.040;8.600;2023-07-22T06:18:49;10.57;;;2.53;;
80510;SDS011;69840;53.040;8.600;2023-07-22T06:23:02;8.85;;;2.72;;
80510;SDS011;69840;53.040;8.600;2023-07-22T06:27:15;6.78;;;3.25;;
80510;SDS011;69840;53.040;8.600;2023-07-22T06:31:27;5.03;;;2.00;;
80510;SDS011;69840;53.040;8.600;2023-07-22T06:35:40;4.75;;;2.05;;
80510;SDS011;69840;53.040;8.600;2023-07-22T06:39:52;7.10;;;3.13;;
80510;SDS011;69840;53.040;8.600;2023-07-22T06:44:05;6.75;;;2.20;;
80510;SDS011;69840;53.040;8.600;2023-07-22T06:48:18;7.25;;;3.25;;
80510;SDS011;69840;53.040;8.600;2023-07-22T06:52:31;17.25;;;2.90;;
80510;SDS011;69840;53.040;8.600;2023-07-22T06:56:44;5.78;;;2.88;;
80510;SDS011;69840;53.040;8.600;2023-07-22T07:00:56;6.85;;;2.15;;
80510;SDS011;69840;53.040;8.600;2023-07-22T07:05:09;4.00;;;2.03;;
80510;SDS011;69840;53.040;8.600;2023-07-22T07:09:21;5.13;;;2.33;;
80510;SDS011;69840;53.040;8.600;2023-07-22T07:13:34;2.97;;;1.52;;
80510;SDS011;69840;53.040;8.600;2023-07-22T07:17:46;4.57;;;1.65;;
80510;SDS011;69840;53.040;8.600;2023-07-22T07:21:59;7.20;;;2.03;;
80510;SDS011;69840;53.040;8.600;2023-07-22T07:26:11;4.07;;;2.03;;
80510;SDS011;69840;53.040;8.600;2023-07-22T07:30:24;5.85;;;2.38;;
80510;SDS011;69840;53.040;8.600;2023-07-22T07:34:36;6.45;;;2.15;;
80510;SDS011;69840;53.040;8.600;2023-07-22T07:38:49;6.30;;;1.92;;
80510;SDS011;69840;53.040;8.600;2023-07-22T07:43:01;3.63;;;1.40;;
80510;SDS011;69840;53.040;8.600;2023-07-22T07:47:14;7.40;;;2.10;;
80510;SDS011;69840;53.040;8.600;2023-07-22T07:51:27;7.75;;;1.77;;
80510;SDS011;69840;53.040;8.600;2023-07-22T07:55:40;7.22;;;2.20;;
80510;SDS011;69840;53.040;8.600;2023-07-22T07:59:53;5.68;;;2.08;;
80510;SDS011;69840;53.040;8.600;2023-07-22T08:04:06;7.65;;;1.80;;
80510;SDS011;69840;53.040;8.600;2023-07-22T08:08:18;4.65;;;1.50;;
80510;SDS011;69840;53.040;8.600;2023-07-22T08:12:31;3.33;;;1.30;;
80510;SDS011;69840;53.040;8.600;2023-07-22T08:16:44;4.65;;;2.00;;
80510;SDS011;69840;53.040;8.600;2023-07-22T08:20:57;7.40;;;2.35;;
80510;SDS011;69840;53.040;8.600;2023-07-22T08:25:10;4.50;;;2.03;;
80510;SDS011;69840;53.040;8.600;2023-07-22T08:29:22;4.65;;;2.10;;
80510;SDS011;69840;53.040;8.600;2023-07-22T08:33:35;7.85;;;2.60;;
80510;SDS011;69840;53.040;8.600;2023-07-22T08:37:51;5.97;;;1.95;;
80510;SDS011;69840;53.040;8.600;2023-07-22T08:42:04;6.35;;;2.55;;
80510;SDS011;69840;53.040;8.600;2023-07-22T08:46:19;7.18;;;2.90;;
80510;SDS011;69840;53.040;8.600;2023-07-22T08:50:37;7.20;;;2.95;;
80510;SDS011;69840;53.040;8.600;2023-07-22T08:54:56;5.72;;;2.35;;
80510;SDS011;69840;53.040;8.600;2023-07-22T08:59:08;7.25;;;3.95;;
80510;SDS011;69840;53.040;8.600;2023-07-22T09:03:21;6.78;;;3.05;;
80510;SDS011;69840;53.040;8.600;2023-07-22T09:07:35;7.60;;;3.25;;
80510;SDS011;69840;53.040;8.600;2023-07-22T09:11:49;10.57;;;3.63;;
80510;SDS011;69840;53.040;8.600;2023-07-22T09:16:01;4.78;;;3.15;;
80510;SDS011;69840;53.040;8.600;2023-07-22T09:20:15;7.35;;;3.33;;
80510;SDS011;69840;53.040;8.600;2023-07-22T09:24:27;11.52;;;3.28;;
80510;SDS011;69840;53.040;8.600;2023-07-22T09:28:49;8.88;;;3.72;;
80510;SDS011;69840;53.040;8.600;2023-07-22T09:33:21;8.15;;;3.67;;
80510;SDS011;69840;53.040;8.600;2023-07-22T09:37:37;9.40;;;3.72;;
80510;SDS011;69840;53.040;8.600;2023-07-22T09:41:50;7.10;;;3.42;;
80510;SDS011;69840;53.040;8.600;2023-07-22T09:46:07;8.20;;;4.32;;
80510;SDS011;69840;53.040;8.600;2023-07-22T09:50:26;8.00;;;3.95;;
80510;SDS011;69840;53.040;8.600;2023-07-22T09:54:46;8.25;;;3.38;;
80510;SDS011;69840;53.040;8.600;2023-07-22T09:58:59;8.43;;;4.40;;
80510;SDS011;69840;53.040;8.600;2023-07-22T10:03:16;9.63;;;3.50;;
80510;SDS011;69840;53.040;8.600;2023-07-22T10:07:33;8.02;;;4.18;;
80510;SDS011;69840;53.040;8.600;2023-07-22T10:11:46;8.02;;;3.83;;
80510;SDS011;69840;53.040;8.600;2023-07-22T10:15:59;7.35;;;4.20;;
80510;SDS011;69840;53.040;8.600;2023-07-22T10:20:13;6.97;;;3.42;;
80510;SDS011;69840;53.040;8.600;2023-07-22T10:24:25;6.15;;;3.10;;
80510;SDS011;69840;53.040;8.600;2023-07-22T10:28:39;6.95;;;2.85;;
80510;SDS011;69840;53.040;8.600;2023-07-22T10:32:53;7.47;;;2.97;;
80510;SDS011;69840;53.040;8.600;2023-07-22T10:37:08;7.25;;;3.55;;
80510;SDS011;69840;53.040;8.600;2023-07-22T10:41:21;7.53;;;2.85;;
80510;SDS011;69840;53.040;8.600;2023-07-22T10:45:39;7.43;;;4.15;;
80510;SDS011;69840;53.040;8.600;2023-07-22T10:49:53;7.10;;;2.92;;
80510;SDS011;69840;53.040;8.600;2023-07-22T10:54:12;6.10;;;3.00;;
80510;SDS011;69840;53.040;8.600;2023-07-22T10:58:25;10.02;;;3.33;;
80510;SDS011;69840;53.040;8.600;2023-07-22T11:02:37;9.90;;;4.95;;
80510;SDS011;69840;53.040;8.600;2023-07-22T11:06:53;8.30;;;4.20;;
80510;SDS011;69840;53.040;8.600;2023-07-22T11:11:06;7.40;;;2.92;;
80510;SDS011;69840;53.040;8.600;2023-07-22T11:15:19;8.88;;;3.35;;
80510;SDS011;69840;53.040;8.600;2023-07-22T11:19:31;5.32;;;3.22;;
80510;SDS011;69840;53.040;8.600;2023-07-22T11:23:44;7.47;;;3.85;;
80510;SDS011;69840;53.040;8.600;2023-07-22T11:27:57;7.13;;;3.30;;
80510;SDS011;69840;53.040;8.600;2023-07-22T11:32:19;8.32;;;3.42;;
80510;SDS011;69840;53.040;8.600;2023-07-22T11:40:45;10.10;;;3.50;;
80510;SDS011;69840;53.040;8.600;2023-07-22T11:44:58;6.90;;;3.88;;
80510;SDS011;69840;53.040;8.600;2023-07-22T11:49:12;7.03;;;3.33;;
80510;SDS011;69840;53.040;8.600;2023-07-22T11:53:27;6.18;;;2.97;;
80510;SDS011;69840;53.040;8.600;2023-07-22T11:57:40;8.32;;;2.90;;
80510;SDS011;69840;53.040;8.600;2023-07-22T12:01:53;6.68;;;3.90;;
80510;SDS011;69840;53.040;8.600;2023-07-22T12:06:05;8.40;;;3.17;;
80510;SDS011;69840;53.040;8.600;2023-07-22T12:10:19;5.38;;;2.92;;
80510;SDS011;69840;53.040;8.600;2023-07-22T12:14:34;5.45;;;3.05;;
80510;SDS011;69840;53.040;8.600;2023-07-22T12:18:47;5.88;;;3.20;;
80510;SDS011;69840;53.040;8.600;2023-07-22T12:23:00;7.75;;;3.20;;
80510;SDS011;69840;53.040;8.600;2023-07-22T12:27:13;5.53;;;3.28;;
80510;SDS011;69840;53.040;8.600;2023-07-22T12:31:25;4.85;;;3.03;;
80510;SDS011;69840;53.040;8.600;2023-07-22T12:35:38;3.90;;;2.63;;
80510;SDS011;69840;53.040;8.600;2023-07-22T12:39:50;7.18;;;3.70;;
80510;SDS011;69840;53.040;8.600;2023-07-22T12:44:03;7.93;;;3.97;;
80510;SDS011;69840;53.040;8.600;2023-07-22T12:48:16;11.65;;;5.95;;
80510;SDS011;69840;53.040;8.600;2023-07-22T12:52:30;10.55;;;4.25;;
80510;SDS011;69840;53.040;8.600;2023-07-22T12:56:43;14.63;;;5.55;;
80510;SDS011;69840;53.040;8.600;2023-07-22T13:00:55;10.43;;;6.15;;
80510;SDS011;69840;53.040;8.600;2023-07-22T13:05:08;12.05;;;4.65;;
80510;SDS011;69840;53.040;8.600;2023-07-22T13:09:22;10.07;;;5.45;;
80510;SDS011;69840;53.040;8.600;2023-07-22T13:13:35;10.68;;;4.97;;
80510;SDS011;69840;53.040;8.600;2023-07-22T13:17:47;13.35;;;5.40;;
80510;SDS011;69840;53.040;8.600;2023-07-22T13:22:00;11.50;;;5.60;;
80510;SDS011;69840;53.040;8.600;2023-07-22T13:26:12;11.48;;;6.15;;
80510;SDS011;69840;53.040;8.600;2023-07-22T13:30:26;10.80;;;4.72;;
80510;SDS011;69840;53.040;8.600;2023-07-22T13:34:39;11.38;;;5.78;;
80510;SDS011;69840;53.040;8.600;2023-07-22T13:38:51;9.18;;;5.28;;
80510;SDS011;69840;53.040;8.600;2023-07-22T13:43:04;9.30;;;4.95;;
80510;SDS011;69840;53.040;8.600;2023-07-22T13:47:16;10.95;;;5.82;;
80510;SDS011;69840;53.040;8.600;2023-07-22T13:51:29;11.30;;;5.63;;
80510;SDS011;69840;53.040;8.600;2023-07-22T13:55:41;8.57;;;5.32;;
80510;SDS011;69840;53.040;8.600;2023-07-22T13:59:55;10.27;;;5.85;;
80510;SDS011;69840;53.040;8.600;2023-07-22T14:04:08;10.13;;;5.32;;
80510;SDS011;69840;53.040;8.600;2023-07-22T14:08:20;10.73;;;5.80;;
80510;SDS011;69840;53.040;8.600;2023-07-22T14:12:33;11.52;;;6.70;;
80510;SDS011;69840;53.040;8.600;2023-07-22T14:16:45;13.32;;;6.38;;
80510;SDS011;69840;53.040;8.600;2023-07-22T14:20:58;12.13;;;5.60;;
80510;SDS011;69840;53.040;8.600;2023-07-22T14:25:11;14.63;;;6.88;;
80510;SDS011;69840;53.040;8.600;2023-07-22T14:29:23;12.57;;;6.22;;
80510;SDS011;69840;53.040;8.600;2023-07-22T14:33:36;17.38;;;8.00;;
80510;SDS011;69840;53.040;8.600;2023-07-22T14:37:48;18.92;;;8.30;;
80510;SDS011;69840;53.040;8.600;2023-07-22T14:42:01;14.63;;;6.97;;
80510;SDS011;69840;53.040;8.600;2023-07-22T14:46:13;14.50;;;7.50;;
80510;SDS011;69840;53.040;8.600;2023-07-22T14:50:26;13.85;;;7.03;;
80510;SDS011;69840;53.040;8.600;2023-07-22T14:54:38;12.85;;;6.38;;
80510;SDS011;69840;53.040;8.600;2023-07-22T14:58:51;10.88;;;6.15;;
80510;SDS011;69840;53.040;8.600;2023-07-22T15:03:04;13.32;;;7.43;;
80510;SDS011;69840;53.040;8.600;2023-07-22T15:07:16;11.90;;;5.65;;
80510;SDS011;69840;53.040;8.600;2023-07-22T15:11:29;13.43;;;6.05;;
80510;SDS011;69840;53.040;8.600;2023-07-22T15:15:42;14.13;;;6.63;;
80510;SDS011;69840;53.040;8.600;2023-07-22T15:19:54;10.98;;;6.63;;
80510;SDS011;69840;53.040;8.600;2023-07-22T15:24:07;9.18;;;4.45;;
80510;SDS011;69840;53.040;8.600;2023-07-22T15:28:19;7.32;;;4.28;;
80510;SDS011;69840;53.040;8.600;2023-07-22T15:32:32;10.43;;;4.43;;
80510;SDS011;69840;53.040;8.600;2023-07-22T15:36:44;8.02;;;3.97;;
80510;SDS011;69840;53.040;8.600;2023-07-22T15:40:57;9.38;;;4.60;;
80510;SDS011;69840;53.040;8.600;2023-07-22T15:45:09;8.68;;;4.95;;
80510;SDS011;69840;53.040;8.600;2023-07-22T15:49:22;12.35;;;4.93;;
80510;SDS011;69840;53.040;8.600;2023-07-22T15:53:34;15.02;;;4.53;;
80510;SDS011;69840;53.040;8.600;2023-07-22T15:57:47;11.43;;;4.05;;
80510;SDS011;69840;53.040;8.600;2023-07-22T16:02:00;8.38;;;4.10;;
80510;SDS011;69840;53.040;8.600;2023-07-22T16:06:12;7.82;;;4.22;;
80510;SDS011;69840;53.040;8.600;2023-07-22T16:10:31;8.05;;;4.70;;
80510;SDS011;69840;53.040;8.600;2023-07-22T16:14:44;9.05;;;4.70;;
80510;SDS011;69840;53.040;8.600;2023-07-22T16:18:56;9.70;;;4.20;;
80510;SDS011;69840;53.040;8.600;2023-07-22T16:23:09;10.95;;;5.07;;
80510;SDS011;69840;53.040;8.600;2023-07-22T16:27:21;11.35;;;4.22;;
80510;SDS011;69840;53.040;8.600;2023-07-22T16:31:34;8.20;;;4.20;;
80510;SDS011;69840;53.040;8.600;2023-07-22T16:35:47;10.02;;;5.30;;
80510;SDS011;69840;53.040;8.600;2023-07-22T16:39:59;9.07;;;5.03;;
80510;SDS011;69840;53.040;8.600;2023-07-22T16:44:12;8.73;;;4.28;;
80510;SDS011;69840;53.040;8.600;2023-07-22T16:48:25;10.02;;;4.47;;
80510;SDS011;69840;53.040;8.600;2023-07-22T16:52:37;9.32;;;4.32;;
80510;SDS011;69840;53.040;8.600;2023-07-22T16:56:50;11.15;;;4.13;;
80510;SDS011;69840;53.040;8.600;2023-07-22T17:01:02;13.07;;;5.40;;
80510;SDS011;69840;53.040;8.600;2023-07-22T17:05:15;7.43;;;4.40;;
80510;SDS011;69840;53.040;8.600;2023-07-22T17:09:27;10.35;;;5.22;;
80510;SDS011;69840;53.040;8.600;2023-07-22T17:13:40;7.25;;;4.90;;
80510;SDS011;69840;53.040;8.600;2023-07-22T17:17:52;13.10;;;5.25;;
80510;SDS011;69840;53.040;8.600;2023-07-22T17:22:07;8.80;;;4.95;;
80510;SDS011;69840;53.040;8.600;2023-07-22T17:26:20;11.60;;;5.75;;
80510;SDS011;69840;53.040;8.600;2023-07-22T17:30:32;12.65;;;6.90;;
80510;SDS011;69840;53.040;8.600;2023-07-22T17:34:45;11.48;;;5.75;;
80510;SDS011;69840;53.040;8.600;2023-07-22T17:38:57;13.70;;;7.13;;
80510;SDS011;69840;53.040;8.600;2023-07-22T17:43:10;10.95;;;5.93;;
80510;SDS011;69840;53.040;8.600;2023-07-22T17:47:23;8.73;;;5.65;;
80510;SDS011;69840;53.040;8.600;2023-07-22T17:51:35;10.75;;;5.88;;
80510;SDS011;69840;53.040;8.600;2023-07-22T17:55:48;10.50;;;5.63;;
80510;SDS011;69840;53.040;8.600;2023-07-22T18:00:01;9.48;;;5.90;;
80510;SDS011;69840;53.040;8.600;2023-07-22T18:04:21;12.52;;;6.28;;
80510;SDS011;69840;53.040;8.600;2023-07-22T18:08:34;13.80;;;6.68;;
80510;SDS011;69840;53.040;8.600;2023-07-22T18:12:46;13.90;;;7.28;;
80510;SDS011;69840;53.040;8.600;2023-07-22T18:16:59;17.80;;;8.75;;
80510;SDS011;69840;53.040;8.600;2023-07-22T18:21:11;15.82;;;6.82;;
80510;SDS011;69840;53.040;8.600;2023-07-22T18:25:24;17.95;;;7.45;;
80510;SDS011;69840;53.040;8.600;2023-07-22T18:29:37;21.83;;;8.95;;
80510;SDS011;69840;53.040;8.600;2023-07-22T18:33:49;21.13;;;9.10;;
80510;SDS011;69840;53.040;8.600;2023-07-22T18:38:02;17.08;;;8.15;;
80510;SDS011;69840;53.040;8.600;2023-07-22T18:42:15;12.88;;;6.35;;
80510;SDS011;69840;53.040;8.600;2023-07-22T18:46:27;17.40;;;6.25;;
80510;SDS011;69840;53.040;8.600;2023-07-22T18:50:40;13.52;;;7.95;;
80510;SDS011;69840;53.040;8.600;2023-07-22T18:54:52;11.95;;;6.53;;
80510;SDS011;69840;53.040;8.600;2023-07-22T18:59:05;12.30;;;6.05;;
80510;SDS011;69840;53.040;8.600;2023-07-22T19:03:17;12.80;;;6.78;;
80510;SDS011;69840;53.040;8.600;2023-07-22T19:07:30;13.07;;;7.10;;
80510;SDS011;69840;53.040;8.600;2023-07-22T19:11:42;13.68;;;7.93;;
80510;SDS011;69840;53.040;8.600;2023-07-22T19:15:55;14.20;;;8.63;;
80510;SDS011;69840;53.040;8.600;2023-07-22T19:20:07;9.90;;;5.78;;
80510;SDS011;69840;53.040;8.600;2023-07-22T19:24:20;14.88;;;8.43;;
80510;SDS011;69840;53.040;8.600;2023-07-22T19:28:33;12.25;;;6.78;;
80510;SDS011;69840;53.040;8.600;2023-07-22T19:32:45;14.75;;;7.20;;
80510;SDS011;69840;53.040;8.600;2023-07-22T19:36:59;16.42;;;7.07;;
80510;SDS011;69840;53.040;8.600;2023-07-22T19:41:12;11.85;;;6.45;;
80510;SDS011;69840;53.040;8.600;2023-07-22T19:45:26;12.57;;;6.90;;
80510;SDS011;69840;53.040;8.600;2023-07-22T19:49:38;16.80;;;7.07;;
80510;SDS011;69840;53.040;8.600;2023-07-22T19:53:51;12.77;;;6.20;;
80510;SDS011;69840;53.040;8.600;2023-07-22T19:58:03;16.10;;;8.00;;
80510;SDS011;69840;53.040;8.600;2023-07-22T20:02:16;13.38;;;7.20;;
80510;SDS011;69840;53.040;8.600;2023-07-22T20:06:28;19.48;;;6.97;;
80510;SDS011;69840;53.040;8.600;2023-07-22T20:10:41;15.02;;;7.60;;
80510;SDS011;69840;53.040;8.600;2023-07-22T20:14:54;12.05;;;6.57;;
80510;SDS011;69840;53.040;8.600;2023-07-22T20:19:06;10.77;;;6.50;;
80510;SDS011;69840;53.040;8.600;2023-07-22T20:23:19;14.27;;;6.95;;
80510;SDS011;69840;53.040;8.600;2023-07-22T20:27:31;14.32;;;7.30;;
80510;SDS011;69840;53.040;8.600;2023-07-22T20:31:48;11.27;;;6.93;;
80510;SDS011;69840;53.040;8.600;2023-07-22T20:36:00;14.60;;;7.35;;
80510;SDS011;69840;53.040;8.600;2023-07-22T20:40:13;14.35;;;7.13;;
80510;SDS011;69840;53.040;8.600;2023-07-22T20:44:26;12.07;;;6.07;;
80510;SDS011;69840;53.040;8.600;2023-07-22T20:48:38;16.60;;;7.07;;
80510;SDS011;69840;53.040;8.600;2023-07-22T20:52:51;15.48;;;8.73;;
80510;SDS011;69840;53.040;8.600;2023-07-22T20:57:03;12.50;;;7.13;;
80510;SDS011;69840;53.040;8.600;2023-07-22T21:01:16;14.07;;;7.78;;
80510;SDS011;69840;53.040;8.600;2023-07-22T21:05:29;13.82;;;7.88;;
80510;SDS011;69840;53.040;8.600;2023-07-22T21:09:41;16.80;;;8.82;;
80510;SDS011;69840;53.040;8.600;2023-07-22T21:13:54;14.00;;;7.95;;
80510;SDS011;69840;53.040;8.600;2023-07-22T21:18:06;18.13;;;7.47;;
80510;SDS011;69840;53.040;8.600;2023-07-22T21:22:19;11.77;;;7.60;;
80510;SDS011;69840;53.040;8.600;2023-07-22T21:26:31;13.13;;;7.93;;
80510;SDS011;69840;53.040;8.600;2023-07-22T21:30:44;16.17;;;8.55;;
80510;SDS011;69840;53.040;8.600;2023-07-22T21:34:56;14.60;;;7.38;;
80510;SDS011;69840;53.040;8.600;2023-07-22T21:39:09;15.52;;;7.65;;
80510;SDS011;69840;53.040;8.600;2023-07-22T21:43:21;14.25;;;8.55;;
80510;SDS011;69840;53.040;8.600;2023-07-22T21:47:34;14.88;;;7.55;;
80510;SDS011;69840;53.040;8.600;2023-07-22T21:51:46;18.10;;;8.30;;
80510;SDS011;69840;53.040;8.600;2023-07-22T21:55:59;17.05;;;8.10;;
80510;SDS011;69840;53.040;8.600;2023-07-22T22:00:12;15.20;;;7.20;;
80510;SDS011;69840;53.040;8.600;2023-07-22T22:04:25;16.02;;;7.78;;
80510;SDS011;69840;53.040;8.600;2023-07-22T22:08:38;12.88;;;7.95;;
80510;SDS011;69840;53.040;8.600;2023-07-22T22:12:50;19.00;;;8.52;;
80510;SDS011;69840;53.040;8.600;2023-07-22T22:17:03;19.30;;;8.70;;
80510;SDS011;69840;53.040;8.600;2023-07-22T22:21:16;16.83;;;9.25;;
80510;SDS011;69840;53.040;8.600;2023-07-22T22:25:28;15.73;;;8.38;;
80510;SDS011;69840;53.040;8.600;2023-07-22T22:29:41;17.75;;;8.93;;
80510;SDS011;69840;53.040;8.600;2023-07-22T22:33:54;19.95;;;9.15;;
80510;SDS011;69840;53.040;8.600;2023-07-22T22:38:06;20.40;;;9.85;;
80510;SDS011;69840;53.040;8.600;2023-07-22T22:42:19;12.40;;;8.00;;
80510;SDS011;69840;53.040;8.600;2023-07-22T22:46:31;15.43;;;8.18;;
80510;SDS011;69840;53.040;8.600;2023-07-22T22:50:44;22.13;;;10.50;;
80510;SDS011;69840;53.040;8.600;2023-07-22T22:54:57;14.35;;;7.97;;
80510;SDS011;69840;53.040;8.600;2023-07-22T22:59:09;17.10;;;8.77;;
80510;SDS011;69840;53.040;8.600;2023-07-22T23:03:22;14.90;;;8.30;;
80510;SDS011;69840;53.040;8.600;2023-07-22T23:07:34;17.75;;;10.15;;
80510;SDS011;69840;53.040;8.600;2023-07-22T23:11:47;16.80;;;9.20;;
80510;SDS011;69840;53.040;8.600;2023-07-22T23:15:59;18.38;;;10.15;;
80510;SDS011;69840;53.040;8.600;2023-07-22T23:20:12;24.02;;;10.57;;
80510;SDS011;69840;53.040;8.600;2023-07-22T23:24:24;18.80;;;9.30;;
80510;SDS011;69840;53.040;8.600;2023-07-22T23:28:37;20.65;;;9.98;;
80510;SDS011;69840;53.040;8.600;2023-07-22T23:32:49;23.90;;;10.95;;
80510;SDS011;69840;53.040;8.600;2023-07-22T23:37:02;27.30;;;9.38;;
80510;SDS011;69840;53.040;8.600;2023-07-22T23:41:15;19.77;;;10.15;;
80510;SDS011;69840;53.040;8.600;2023-07-22T23:45:28;17.45;;;9.27;;
80510;SDS011;69840;53.040;8.600;2023-07-22T23:49:40;23.55;;;12.00;;
80510;SDS011;69840;53.040;8.600;2023-07-22T23:53:53;18.45;;;10.48;;
80510;SDS011;69840;53.040;8.600;2023-07-22T23:58:05;18.70;;;9.57;;
